sensor_id;sensor_type;location;lat;lon;timestamp;temperature;humidity
21770;DHT22;11046;49.558;8.674;2023-12-20T00:02:31;4.70;99.90
21770;DHT22;11046;49.558;8.674;2023-12-20T00:05:32;4.80;99.90
21770;DHT22;11046;49.558;8.674;2023-12-20T00:08:33;4.70;99.90
21770;DHT22;11046;49.558;8.674;2023-12-20T00:11:34;4.60;99.90
21770;DHT22;11046;49.558;8.674;2023-12-20T00:14:35;4.70;99.90
21770;DHT22;11046;49.558;8.674;2023-12-20T00:17:36;4.80;99.90
21770;DHT22;11046;49.558;8.674;2023-12-20T00:20:36;4.70;99.90
21770;DHT22;11046;49.558;8.674;2023-12-20T00:23:37;4.80;99.90
21770;DHT22;11046;49.558;8.674;2023-12-20T00:26:38;4.80;99.90
21770;DHT22;11046;49.558;8.674;2023-12-20T00:29:38;4.80;99.90
21770;DHT22;11046;49.558;8.674;2023-12-20T00:32:39;4.80;99.90
21770;DHT22;11046;49.558;8.674;2023-12-20T00:35:40;4.90;99.90
21770;DHT22;11046;49.558;8.674;2023-12-20T00:38:40;4.80;99.90
21770;DHT22;11046;49.558;8.674;2023-12-20T00:41:41;4.80;99.90
21770;DHT22;11046;49.558;8.674;2023-12-20T00:44:41;4.80;99.90
21770;DHT22;11046;49.558;8.674;2023-12-20T00:47:42;4.80;99.90
21770;DHT22;11046;49.558;8.674;2023-12-20T00:50:43;4.80;99.90
21770;DHT22;11046;49.558;8.674;2023-12-20T00:53:43;4.70;99.90
21770;DHT22;11046;49.558;8.674;2023-12-20T00:56:44;4.70;99.90
21770;DHT22;11046;49.558;8.674;2023-12-20T00:59:44;4.80;99.90
21770;DHT22;11046;49.558;8.674;2023-12-20T01:02:45;4.80;99.90
21770;DHT22;11046;49.558;8.674;2023-12-20T01:05:47;4.70;99.90
21770;DHT22;11046;49.558;8.674;2023-12-20T01:08:47;4.80;99.90
21770;DHT22;11046;49.558;8.674;2023-12-20T01:11:48;4.80;99.90
21770;DHT22;11046;49.558;8.674;2023-12-20T01:14:49;4.80;99.90
21770;DHT22;11046;49.558;8.674;2023-12-20T01:17:49;4.90;99.90
21770;DHT22;11046;49.558;8.674;2023-12-20T01:20:50;4.90;99.90
21770;DHT22;11046;49.558;8.674;2023-12-20T01:23:51;4.90;99.90
21770;DHT22;11046;49.558;8.674;2023-12-20T01:26:51;4.80;99.90
21770;DHT22;11046;49.558;8.674;2023-12-20T01:29:52;4.80;99.90
21770;DHT22;11046;49.558;8.674;2023-12-20T01:32:52;4.90;99.90
21770;DHT22;11046;49.558;8.674;2023-12-20T01:35:53;4.90;99.90
21770;DHT22;11046;49.558;8.674;2023-12-20T01:38:53;4.90;99.90
21770;DHT22;11046;49.558;8.674;2023-12-20T01:41:54;4.90;99.90
21770;DHT22;11046;49.558;8.674;2023-12-20T01:44:55;4.90;99.90
21770;DHT22;11046;49.558;8.674;2023-12-20T01:47:58;4.80;99.90
21770;DHT22;11046;49.558;8.674;2023-12-20T01:51:02;4.80;99.90
21770;DHT22;11046;49.558;8.674;2023-12-20T01:54:03;4.90;99.90
21770;DHT22;11046;49.558;8.674;2023-12-20T01:57:05;4.90;99.90
21770;DHT22;11046;49.558;8.674;2023-12-20T02:00:07;4.90;99.90
21770;DHT22;11046;49.558;8.674;2023-12-20T02:03:09;4.90;99.90
21770;DHT22;11046;49.558;8.674;2023-12-20T02:06:11;4.90;99.90
21770;DHT22;11046;49.558;8.674;2023-12-20T02:09:11;4.90;99.90
21770;DHT22;11046;49.558;8.674;2023-12-20T02:12:12;4.90;99.90
21770;DHT22;11046;49.558;8.674;2023-12-20T02:15:13;4.90;99.90
21770;DHT22;11046;49.558;8.674;2023-12-20T02:18:13;4.90;99.90
21770;DHT22;11046;49.558;8.674;2023-12-20T02:21:17;4.90;99.90
21770;DHT22;11046;49.558;8.674;2023-12-20T02:24:17;5.00;99.90
21770;DHT22;11046;49.558;8.674;2023-12-20T02:27:19;5.00;99.90
21770;DHT22;11046;49.558;8.674;2023-12-20T02:30:19;4.90;99.90
21770;DHT22;11046;49.558;8.674;2023-12-20T02:33:20;4.90;99.90
21770;DHT22;11046;49.558;8.674;2023-12-20T02:36:21;5.00;99.90
21770;DHT22;11046;49.558;8.674;2023-12-20T02:39:22;5.00;99.90
21770;DHT22;11046;49.558;8.674;2023-12-20T02:42:22;4.90;99.90
21770;DHT22;11046;49.558;8.674;2023-12-20T02:45:23;4.90;99.90
21770;DHT22;11046;49.558;8.674;2023-12-20T02:48:24;4.90;99.90
21770;DHT22;11046;49.558;8.674;2023-12-20T02:51:24;4.90;99.90
21770;DHT22;11046;49.558;8.674;2023-12-20T02:54:25;4.90;99.90
21770;DHT22;11046;49.558;8.674;2023-12-20T02:57:25;4.90;99.90
21770;DHT22;11046;49.558;8.674;2023-12-20T03:00:26;4.90;99.90
21770;DHT22;11046;49.558;8.674;2023-12-20T03:03:27;4.90;99.90
21770;DHT22;11046;49.558;8.674;2023-12-20T03:06:27;4.90;99.90
21770;DHT22;11046;49.558;8.674;2023-12-20T03:09:28;5.00;99.90
21770;DHT22;11046;49.558;8.674;2023-12-20T03:12:28;4.90;99.90
21770;DHT22;11046;49.558;8.674;2023-12-20T03:15:29;4.90;99.90
21770;DHT22;11046;49.558;8.674;2023-12-20T03:18:29;5.00;99.90
21770;DHT22;11046;49.558;8.674;2023-12-20T03:21:30;4.90;99.90
21770;DHT22;11046;49.558;8.674;2023-12-20T03:24:31;4.90;99.90
21770;DHT22;11046;49.558;8.674;2023-12-20T03:27:31;4.90;99.90
21770;DHT22;11046;49.558;8.674;2023-12-20T03:30:32;4.80;99.90
21770;DHT22;11046;49.558;8.674;2023-12-20T03:33:32;4.90;99.90
21770;DHT22;11046;49.558;8.674;2023-12-20T03:36:33;4.90;99.90
21770;DHT22;11046;49.558;8.674;2023-12-20T03:39:33;5.00;99.90
21770;DHT22;11046;49.558;8.674;2023-12-20T03:42:34;4.90;99.90
21770;DHT22;11046;49.558;8.674;2023-12-20T03:45:35;4.90;99.90
21770;DHT22;11046;49.558;8.674;2023-12-20T03:48:35;5.00;99.90
21770;DHT22;11046;49.558;8.674;2023-12-20T03:51:36;5.00;99.90
21770;DHT22;11046;49.558;8.674;2023-12-20T03:54:36;4.90;99.90
21770;DHT22;11046;49.558;8.674;2023-12-20T03:57:37;5.00;99.90
21770;DHT22;11046;49.558;8.674;2023-12-20T04:00:38;5.00;99.90
21770;DHT22;11046;49.558;8.674;2023-12-20T04:03:39;4.90;99.90
21770;DHT22;11046;49.558;8.674;2023-12-20T04:06:40;4.90;99.90
21770;DHT22;11046;49.558;8.674;2023-12-20T04:09:41;4.90;99.90
21770;DHT22;11046;49.558;8.674;2023-12-20T04:12:42;4.90;99.90
21770;DHT22;11046;49.558;8.674;2023-12-20T04:15:42;4.90;99.90
21770;DHT22;11046;49.558;8.674;2023-12-20T04:18:43;4.90;99.90
21770;DHT22;11046;49.558;8.674;2023-12-20T04:21:43;5.00;99.90
21770;DHT22;11046;49.558;8.674;2023-12-20T04:24:44;5.00;99.90
21770;DHT22;11046;49.558;8.674;2023-12-20T04:27:45;4.90;99.90
21770;DHT22;11046;49.558;8.674;2023-12-20T04:30:46;4.90;99.90
21770;DHT22;11046;49.558;8.674;2023-12-20T04:33:46;4.90;99.90
21770;DHT22;11046;49.558;8.674;2023-12-20T04:36:47;5.00;99.90
21770;DHT22;11046;49.558;8.674;2023-12-20T04:39:47;4.90;99.90
21770;DHT22;11046;49.558;8.674;2023-12-20T04:42:48;4.90;99.90
21770;DHT22;11046;49.558;8.674;2023-12-20T04:45:50;4.90;99.90
21770;DHT22;11046;49.558;8.674;2023-12-20T04:48:50;4.90;99.90
21770;DHT22;11046;49.558;8.674;2023-12-20T04:51:51;4.80;99.90
21770;DHT22;11046;49.558;8.674;2023-12-20T04:54:52;4.90;99.90
21770;DHT22;11046;49.558;8.674;2023-12-20T04:57:52;4.90;99.90
21770;DHT22;11046;49.558;8.674;2023-12-20T05:00:53;4.80;99.90
21770;DHT22;11046;49.558;8.674;2023-12-20T05:03:54;4.80;99.90
21770;DHT22;11046;49.558;8.674;2023-12-20T05:06:54;4.80;99.90
21770;DHT22;11046;49.558;8.674;2023-12-20T05:09:55;4.80;99.90
21770;DHT22;11046;49.558;8.674;2023-12-20T05:12:55;4.80;99.90
21770;DHT22;11046;49.558;8.674;2023-12-20T05:15:56;4.80;99.90
21770;DHT22;11046;49.558;8.674;2023-12-20T05:18:56;4.80;99.90
21770;DHT22;11046;49.558;8.674;2023-12-20T05:21:57;4.90;99.90
21770;DHT22;11046;49.558;8.674;2023-12-20T05:24:57;4.90;99.90
21770;DHT22;11046;49.558;8.674;2023-12-20T05:27:58;4.90;99.90
21770;DHT22;11046;49.558;8.674;2023-12-20T05:30:59;5.00;99.90
21770;DHT22;11046;49.558;8.674;2023-12-20T05:33:59;5.00;99.90
21770;DHT22;11046;49.558;8.674;2023-12-20T05:37:00;5.00;99.90
21770;DHT22;11046;49.558;8.674;2023-12-20T05:40:02;5.00;99.90
21770;DHT22;11046;49.558;8.674;2023-12-20T05:43:03;4.90;99.90
21770;DHT22;11046;49.558;8.674;2023-12-20T05:46:03;4.90;99.90
21770;DHT22;11046;49.558;8.674;2023-12-20T05:49:04;5.00;99.90
21770;DHT22;11046;49.558;8.674;2023-12-20T05:52:05;5.00;99.90
21770;DHT22;11046;49.558;8.674;2023-12-20T05:55:05;5.00;99.90
21770;DHT22;11046;49.558;8.674;2023-12-20T05:58:06;5.10;99.90
21770;DHT22;11046;49.558;8.674;2023-12-20T06:01:07;5.10;99.90
21770;DHT22;11046;49.558;8.674;2023-12-20T06:04:08;5.00;99.90
21770;DHT22;11046;49.558;8.674;2023-12-20T06:07:12;5.00;99.90
21770;DHT22;11046;49.558;8.674;2023-12-20T06:10:13;5.10;99.90
21770;DHT22;11046;49.558;8.674;2023-12-20T06:13:14;5.10;99.90
21770;DHT22;11046;49.558;8.674;2023-12-20T06:16:15;5.10;99.90
21770;DHT22;11046;49.558;8.674;2023-12-20T06:19:15;5.10;99.90
21770;DHT22;11046;49.558;8.674;2023-12-20T06:22:16;5.20;99.90
21770;DHT22;11046;49.558;8.674;2023-12-20T06:25:16;5.20;99.90
21770;DHT22;11046;49.558;8.674;2023-12-20T06:28:17;5.10;99.90
21770;DHT22;11046;49.558;8.674;2023-12-20T06:31:18;5.10;99.90
21770;DHT22;11046;49.558;8.674;2023-12-20T06:34:18;5.10;99.90
21770;DHT22;11046;49.558;8.674;2023-12-20T06:37:19;5.00;99.90
21770;DHT22;11046;49.558;8.674;2023-12-20T06:40:20;4.90;99.90
21770;DHT22;11046;49.558;8.674;2023-12-20T06:43:20;4.90;99.90
21770;DHT22;11046;49.558;8.674;2023-12-20T06:46:21;4.90;99.90
21770;DHT22;11046;49.558;8.674;2023-12-20T06:49:21;4.80;99.90
21770;DHT22;11046;49.558;8.674;2023-12-20T06:52:22;4.70;99.90
21770;DHT22;11046;49.558;8.674;2023-12-20T06:55:23;4.70;99.90
21770;DHT22;11046;49.558;8.674;2023-12-20T06:58:23;4.70;99.90
21770;DHT22;11046;49.558;8.674;2023-12-20T07:01:24;4.70;99.90
21770;DHT22;11046;49.558;8.674;2023-12-20T07:04:24;4.70;99.90
21770;DHT22;11046;49.558;8.674;2023-12-20T07:07:25;4.70;99.90
21770;DHT22;11046;49.558;8.674;2023-12-20T07:10:26;4.60;99.90
21770;DHT22;11046;49.558;8.674;2023-12-20T07:13:27;4.60;99.90
21770;DHT22;11046;49.558;8.674;2023-12-20T07:16:27;4.40;99.90
21770;DHT22;11046;49.558;8.674;2023-12-20T07:19:28;4.40;99.90
21770;DHT22;11046;49.558;8.674;2023-12-20T07:22:31;4.30;99.90
21770;DHT22;11046;49.558;8.674;2023-12-20T07:25:32;4.40;99.90
21770;DHT22;11046;49.558;8.674;2023-12-20T07:28:33;4.30;99.90
21770;DHT22;11046;49.558;8.674;2023-12-20T07:31:33;4.30;99.90
21770;DHT22;11046;49.558;8.674;2023-12-20T07:34:35;4.30;99.90
21770;DHT22;11046;49.558;8.674;2023-12-20T07:37:35;4.10;99.90
21770;DHT22;11046;49.558;8.674;2023-12-20T07:40:36;4.10;99.90
21770;DHT22;11046;49.558;8.674;2023-12-20T07:43:37;4.00;99.90
21770;DHT22;11046;49.558;8.674;2023-12-20T07:46:38;4.00;99.90
21770;DHT22;11046;49.558;8.674;2023-12-20T07:49:44;4.00;99.90
21770;DHT22;11046;49.558;8.674;2023-12-20T07:52:47;4.00;99.90
21770;DHT22;11046;49.558;8.674;2023-12-20T07:55:48;4.10;99.90
21770;DHT22;11046;49.558;8.674;2023-12-20T07:58:48;4.10;99.90
21770;DHT22;11046;49.558;8.674;2023-12-20T08:01:49;4.10;99.90
21770;DHT22;11046;49.558;8.674;2023-12-20T08:04:49;4.10;99.90
21770;DHT22;11046;49.558;8.674;2023-12-20T08:07:50;4.20;99.90
21770;DHT22;11046;49.558;8.674;2023-12-20T08:10:50;4.20;99.90
21770;DHT22;11046;49.558;8.674;2023-12-20T08:13:51;4.30;99.90
21770;DHT22;11046;49.558;8.674;2023-12-20T08:16:52;4.30;99.90
21770;DHT22;11046;49.558;8.674;2023-12-20T08:19:52;4.40;99.90
21770;DHT22;11046;49.558;8.674;2023-12-20T08:22:53;4.40;99.90
21770;DHT22;11046;49.558;8.674;2023-12-20T08:25:53;4.50;99.90
21770;DHT22;11046;49.558;8.674;2023-12-20T08:28:54;4.50;99.90
21770;DHT22;11046;49.558;8.674;2023-12-20T08:31:55;4.60;99.90
21770;DHT22;11046;49.558;8.674;2023-12-20T08:34:56;4.60;99.90
21770;DHT22;11046;49.558;8.674;2023-12-20T08:37:57;4.60;99.90
21770;DHT22;11046;49.558;8.674;2023-12-20T08:40:57;4.60;99.90
21770;DHT22;11046;49.558;8.674;2023-12-20T08:43:58;4.50;99.90
21770;DHT22;11046;49.558;8.674;2023-12-20T08:46:58;4.50;99.90
21770;DHT22;11046;49.558;8.674;2023-12-20T08:50:00;4.50;99.90
21770;DHT22;11046;49.558;8.674;2023-12-20T08:53:02;4.50;99.90
21770;DHT22;11046;49.558;8.674;2023-12-20T08:56:02;4.50;99.90
21770;DHT22;11046;49.558;8.674;2023-12-20T08:59:03;4.70;99.90
21770;DHT22;11046;49.558;8.674;2023-12-20T09:02:04;4.90;99.90
21770;DHT22;11046;49.558;8.674;2023-12-20T09:05:05;5.10;99.90
21770;DHT22;11046;49.558;8.674;2023-12-20T09:08:05;5.40;99.90
21770;DHT22;11046;49.558;8.674;2023-12-20T09:11:08;5.70;99.90
21770;DHT22;11046;49.558;8.674;2023-12-20T09:14:08;5.90;99.90
21770;DHT22;11046;49.558;8.674;2023-12-20T09:17:09;5.90;99.90
21770;DHT22;11046;49.558;8.674;2023-12-20T09:20:11;6.00;99.90
21770;DHT22;11046;49.558;8.674;2023-12-20T09:23:13;6.00;99.90
21770;DHT22;11046;49.558;8.674;2023-12-20T09:26:14;6.00;99.90
21770;DHT22;11046;49.558;8.674;2023-12-20T09:29:15;6.00;99.90
21770;DHT22;11046;49.558;8.674;2023-12-20T09:32:15;6.00;99.90
21770;DHT22;11046;49.558;8.674;2023-12-20T09:35:16;6.10;99.90
21770;DHT22;11046;49.558;8.674;2023-12-20T09:38:17;6.00;99.90
21770;DHT22;11046;49.558;8.674;2023-12-20T09:41:18;6.00;99.90
21770;DHT22;11046;49.558;8.674;2023-12-20T09:44:18;6.00;99.90
21770;DHT22;11046;49.558;8.674;2023-12-20T09:47:20;5.90;99.90
21770;DHT22;11046;49.558;8.674;2023-12-20T09:50:23;5.80;99.90
21770;DHT22;11046;49.558;8.674;2023-12-20T09:53:25;5.80;99.90
21770;DHT22;11046;49.558;8.674;2023-12-20T09:56:30;5.80;99.90
21770;DHT22;11046;49.558;8.674;2023-12-20T09:59:31;5.80;99.90
21770;DHT22;11046;49.558;8.674;2023-12-20T10:02:31;5.90;99.90
21770;DHT22;11046;49.558;8.674;2023-12-20T10:05:33;5.90;99.90
21770;DHT22;11046;49.558;8.674;2023-12-20T10:08:34;5.90;99.90
21770;DHT22;11046;49.558;8.674;2023-12-20T10:11:36;5.80;99.90
21770;DHT22;11046;49.558;8.674;2023-12-20T10:14:39;5.70;99.90
21770;DHT22;11046;49.558;8.674;2023-12-20T10:17:39;5.70;99.90
21770;DHT22;11046;49.558;8.674;2023-12-20T10:20:41;5.70;99.90
21770;DHT22;11046;49.558;8.674;2023-12-20T10:23:42;5.70;99.90
21770;DHT22;11046;49.558;8.674;2023-12-20T10:26:43;5.80;99.90
21770;DHT22;11046;49.558;8.674;2023-12-20T10:29:43;5.80;99.90
21770;DHT22;11046;49.558;8.674;2023-12-20T10:32:44;6.00;99.90
21770;DHT22;11046;49.558;8.674;2023-12-20T10:35:45;6.00;99.90
21770;DHT22;11046;49.558;8.674;2023-12-20T10:38:46;6.00;99.90
21770;DHT22;11046;49.558;8.674;2023-12-20T10:41:49;6.00;99.90
21770;DHT22;11046;49.558;8.674;2023-12-20T10:44:50;6.00;99.90
21770;DHT22;11046;49.558;8.674;2023-12-20T10:47:51;6.00;99.90
21770;DHT22;11046;49.558;8.674;2023-12-20T10:50:52;6.10;99.90
21770;DHT22;11046;49.558;8.674;2023-12-20T10:53:55;6.20;99.90
21770;DHT22;11046;49.558;8.674;2023-12-20T10:56:58;6.30;99.90
21770;DHT22;11046;49.558;8.674;2023-12-20T11:00:01;6.40;99.90
21770;DHT22;11046;49.558;8.674;2023-12-20T11:03:08;6.40;99.90
21770;DHT22;11046;49.558;8.674;2023-12-20T11:09:36;6.50;99.90
21770;DHT22;11046;49.558;8.674;2023-12-20T11:12:44;6.40;99.90
21770;DHT22;11046;49.558;8.674;2023-12-20T11:15:48;6.40;99.90
21770;DHT22;11046;49.558;8.674;2023-12-20T11:18:51;6.20;99.90
21770;DHT22;11046;49.558;8.674;2023-12-20T11:21:51;6.30;99.90
21770;DHT22;11046;49.558;8.674;2023-12-20T11:24:53;6.30;99.90
21770;DHT22;11046;49.558;8.674;2023-12-20T11:28:07;6.40;99.90
21770;DHT22;11046;49.558;8.674;2023-12-20T11:31:14;6.30;99.90
21770;DHT22;11046;49.558;8.674;2023-12-20T11:34:17;6.30;99.90
21770;DHT22;11046;49.558;8.674;2023-12-20T11:37:19;6.30;99.90
21770;DHT22;11046;49.558;8.674;2023-12-20T11:40:20;6.20;99.90
21770;DHT22;11046;49.558;8.674;2023-12-20T11:43:30;6.20;99.90
21770;DHT22;11046;49.558;8.674;2023-12-20T11:46:32;6.20;99.90
21770;DHT22;11046;49.558;8.674;2023-12-20T11:49:33;6.20;99.90
21770;DHT22;11046;49.558;8.674;2023-12-20T11:52:35;6.10;99.90
21770;DHT22;11046;49.558;8.674;2023-12-20T11:55:35;6.10;99.90
21770;DHT22;11046;49.558;8.674;2023-12-20T11:58:37;6.00;99.90
21770;DHT22;11046;49.558;8.674;2023-12-20T12:01:38;6.00;99.90
21770;DHT22;11046;49.558;8.674;2023-12-20T12:04:40;6.00;99.90
21770;DHT22;11046;49.558;8.674;2023-12-20T12:07:41;6.00;99.90
21770;DHT22;11046;49.558;8.674;2023-12-20T12:10:42;6.00;99.90
21770;DHT22;11046;49.558;8.674;2023-12-20T12:13:43;6.00;99.90
21770;DHT22;11046;49.558;8.674;2023-12-20T12:16:43;6.10;99.90
21770;DHT22;11046;49.558;8.674;2023-12-20T12:19:44;6.10;99.90
21770;DHT22;11046;49.558;8.674;2023-12-20T12:22:44;6.00;99.90
21770;DHT22;11046;49.558;8.674;2023-12-20T12:25:47;6.10;99.90
21770;DHT22;11046;49.558;8.674;2023-12-20T12:28:50;6.10;99.90
21770;DHT22;11046;49.558;8.674;2023-12-20T12:31:51;6.10;99.90
21770;DHT22;11046;49.558;8.674;2023-12-20T12:34:52;6.10;99.90
21770;DHT22;11046;49.558;8.674;2023-12-20T12:37:52;6.10;99.90
21770;DHT22;11046;49.558;8.674;2023-12-20T12:40:54;6.00;99.90
21770;DHT22;11046;49.558;8.674;2023-12-20T12:43:55;6.00;99.90
21770;DHT22;11046;49.558;8.674;2023-12-20T12:46:55;5.90;99.90
21770;DHT22;11046;49.558;8.674;2023-12-20T12:49:57;5.90;99.90
21770;DHT22;11046;49.558;8.674;2023-12-20T12:52:58;5.90;99.90
21770;DHT22;11046;49.558;8.674;2023-12-20T12:55:58;5.90;99.90
21770;DHT22;11046;49.558;8.674;2023-12-20T12:58:59;5.90;99.90
21770;DHT22;11046;49.558;8.674;2023-12-20T13:02:00;5.80;99.90
21770;DHT22;11046;49.558;8.674;2023-12-20T13:05:00;5.80;99.90
21770;DHT22;11046;49.558;8.674;2023-12-20T13:08:03;5.80;99.90
21770;DHT22;11046;49.558;8.674;2023-12-20T13:11:03;5.80;99.90
21770;DHT22;11046;49.558;8.674;2023-12-20T13:14:04;5.90;99.90
21770;DHT22;11046;49.558;8.674;2023-12-20T13:17:05;5.80;99.90
21770;DHT22;11046;49.558;8.674;2023-12-20T13:20:06;5.70;99.90
21770;DHT22;11046;49.558;8.674;2023-12-20T13:23:07;5.70;99.90
21770;DHT22;11046;49.558;8.674;2023-12-20T13:26:08;5.70;99.90
21770;DHT22;11046;49.558;8.674;2023-12-20T13:29:08;5.70;99.90
21770;DHT22;11046;49.558;8.674;2023-12-20T13:32:09;5.80;99.90
21770;DHT22;11046;49.558;8.674;2023-12-20T13:35:09;5.90;99.90
21770;DHT22;11046;49.558;8.674;2023-12-20T13:38:12;5.90;99.90
21770;DHT22;11046;49.558;8.674;2023-12-20T13:41:13;6.00;99.90
21770;DHT22;11046;49.558;8.674;2023-12-20T13:44:14;6.00;99.90
21770;DHT22;11046;49.558;8.674;2023-12-20T13:47:14;6.00;99.90
21770;DHT22;11046;49.558;8.674;2023-12-20T13:50:15;5.90;99.90
21770;DHT22;11046;49.558;8.674;2023-12-20T13:53:16;6.00;99.90
21770;DHT22;11046;49.558;8.674;2023-12-20T13:56:16;5.90;99.90
21770;DHT22;11046;49.558;8.674;2023-12-20T13:59:17;5.90;99.90
21770;DHT22;11046;49.558;8.674;2023-12-20T14:02:17;5.80;99.90
21770;DHT22;11046;49.558;8.674;2023-12-20T14:05:18;5.80;99.90
21770;DHT22;11046;49.558;8.674;2023-12-20T14:08:19;5.90;99.90
21770;DHT22;11046;49.558;8.674;2023-12-20T14:11:20;5.90;99.90
21770;DHT22;11046;49.558;8.674;2023-12-20T14:14:20;5.90;99.90
21770;DHT22;11046;49.558;8.674;2023-12-20T14:17:21;5.90;99.90
21770;DHT22;11046;49.558;8.674;2023-12-20T14:20:22;6.00;99.90
21770;DHT22;11046;49.558;8.674;2023-12-20T14:23:22;6.00;99.90
21770;DHT22;11046;49.558;8.674;2023-12-20T14:26:23;6.00;99.90
21770;DHT22;11046;49.558;8.674;2023-12-20T14:29:24;6.00;99.90
21770;DHT22;11046;49.558;8.674;2023-12-20T14:32:24;6.00;99.90
21770;DHT22;11046;49.558;8.674;2023-12-20T14:35:27;6.00;99.90
21770;DHT22;11046;49.558;8.674;2023-12-20T14:38:27;5.90;99.90
21770;DHT22;11046;49.558;8.674;2023-12-20T14:41:28;5.80;99.90
21770;DHT22;11046;49.558;8.674;2023-12-20T14:44:29;5.80;99.90
21770;DHT22;11046;49.558;8.674;2023-12-20T14:47:29;5.80;99.90
21770;DHT22;11046;49.558;8.674;2023-12-20T14:50:30;5.80;99.90
21770;DHT22;11046;49.558;8.674;2023-12-20T14:53:30;5.70;99.90
21770;DHT22;11046;49.558;8.674;2023-12-20T14:56:31;5.70;99.90
21770;DHT22;11046;49.558;8.674;2023-12-20T14:59:31;5.70;99.90
21770;DHT22;11046;49.558;8.674;2023-12-20T15:02:33;5.80;99.90
21770;DHT22;11046;49.558;8.674;2023-12-20T15:05:34;5.70;99.90
21770;DHT22;11046;49.558;8.674;2023-12-20T15:08:34;5.70;99.90
21770;DHT22;11046;49.558;8.674;2023-12-20T15:11:35;5.70;99.90
21770;DHT22;11046;49.558;8.674;2023-12-20T15:14:36;5.70;99.90
21770;DHT22;11046;49.558;8.674;2023-12-20T15:17:36;5.70;99.90
21770;DHT22;11046;49.558;8.674;2023-12-20T15:20:37;5.70;99.90
21770;DHT22;11046;49.558;8.674;2023-12-20T15:23:37;5.60;99.90
21770;DHT22;11046;49.558;8.674;2023-12-20T15:26:38;5.60;99.90
21770;DHT22;11046;49.558;8.674;2023-12-20T15:29:39;5.70;99.90
21770;DHT22;11046;49.558;8.674;2023-12-20T15:32:39;5.60;99.90
21770;DHT22;11046;49.558;8.674;2023-12-20T15:35:40;5.60;99.90
21770;DHT22;11046;49.558;8.674;2023-12-20T15:38:41;5.60;99.90
21770;DHT22;11046;49.558;8.674;2023-12-20T15:41:42;5.60;99.90
21770;DHT22;11046;49.558;8.674;2023-12-20T15:44:42;5.60;99.90
21770;DHT22;11046;49.558;8.674;2023-12-20T15:47:43;5.50;99.90
21770;DHT22;11046;49.558;8.674;2023-12-20T15:50:44;5.50;99.90
21770;DHT22;11046;49.558;8.674;2023-12-20T15:53:45;5.50;99.90
21770;DHT22;11046;49.558;8.674;2023-12-20T15:56:45;5.50;99.90
21770;DHT22;11046;49.558;8.674;2023-12-20T15:59:48;5.50;99.90
21770;DHT22;11046;49.558;8.674;2023-12-20T16:02:50;5.60;99.90
21770;DHT22;11046;49.558;8.674;2023-12-20T16:05:52;5.50;99.90
21770;DHT22;11046;49.558;8.674;2023-12-20T16:08:54;5.60;99.90
21770;DHT22;11046;49.558;8.674;2023-12-20T16:11:54;5.60;99.90
21770;DHT22;11046;49.558;8.674;2023-12-20T16:14:55;5.50;99.90
21770;DHT22;11046;49.558;8.674;2023-12-20T16:17:56;5.60;99.90
21770;DHT22;11046;49.558;8.674;2023-12-20T16:20:56;5.50;99.90
21770;DHT22;11046;49.558;8.674;2023-12-20T16:23:57;5.50;99.90
21770;DHT22;11046;49.558;8.674;2023-12-20T16:26:58;5.50;99.90
21770;DHT22;11046;49.558;8.674;2023-12-20T16:29:59;5.50;99.90
21770;DHT22;11046;49.558;8.674;2023-12-20T16:33:00;5.50;99.90
21770;DHT22;11046;49.558;8.674;2023-12-20T16:36:01;5.50;99.90
21770;DHT22;11046;49.558;8.674;2023-12-20T16:39:01;5.50;99.90
21770;DHT22;11046;49.558;8.674;2023-12-20T16:42:02;5.50;99.90
21770;DHT22;11046;49.558;8.674;2023-12-20T16:45:03;5.50;99.90
21770;DHT22;11046;49.558;8.674;2023-12-20T16:48:04;5.50;99.90
21770;DHT22;11046;49.558;8.674;2023-12-20T16:51:05;5.50;99.90
21770;DHT22;11046;49.558;8.674;2023-12-20T16:54:06;5.50;99.90
21770;DHT22;11046;49.558;8.674;2023-12-20T16:57:07;5.50;99.90
21770;DHT22;11046;49.558;8.674;2023-12-20T17:00:08;5.50;99.90
21770;DHT22;11046;49.558;8.674;2023-12-20T17:03:08;5.50;99.90
21770;DHT22;11046;49.558;8.674;2023-12-20T17:06:09;5.60;99.90
21770;DHT22;11046;49.558;8.674;2023-12-20T17:09:10;5.50;99.90
21770;DHT22;11046;49.558;8.674;2023-12-20T17:12:11;5.50;99.90
21770;DHT22;11046;49.558;8.674;2023-12-20T17:15:12;5.50;99.90
21770;DHT22;11046;49.558;8.674;2023-12-20T17:18:13;5.40;99.90
21770;DHT22;11046;49.558;8.674;2023-12-20T17:21:13;5.50;99.90
21770;DHT22;11046;49.558;8.674;2023-12-20T17:24:14;5.50;99.90
21770;DHT22;11046;49.558;8.674;2023-12-20T17:27:14;5.50;99.90
21770;DHT22;11046;49.558;8.674;2023-12-20T17:30:15;5.50;99.90
21770;DHT22;11046;49.558;8.674;2023-12-20T17:33:16;5.50;99.90
21770;DHT22;11046;49.558;8.674;2023-12-20T17:36:17;5.50;99.90
21770;DHT22;11046;49.558;8.674;2023-12-20T17:39:17;5.60;99.90
21770;DHT22;11046;49.558;8.674;2023-12-20T17:42:18;5.60;99.90
21770;DHT22;11046;49.558;8.674;2023-12-20T17:45:19;5.60;99.90
21770;DHT22;11046;49.558;8.674;2023-12-20T17:48:19;5.60;99.90
21770;DHT22;11046;49.558;8.674;2023-12-20T17:51:21;5.60;99.90
21770;DHT22;11046;49.558;8.674;2023-12-20T17:54:22;5.60;99.90
21770;DHT22;11046;49.558;8.674;2023-12-20T17:57:24;5.60;99.90
21770;DHT22;11046;49.558;8.674;2023-12-20T18:00:27;5.60;99.90
21770;DHT22;11046;49.558;8.674;2023-12-20T18:03:29;5.60;99.90
21770;DHT22;11046;49.558;8.674;2023-12-20T18:06:29;5.60;99.90
21770;DHT22;11046;49.558;8.674;2023-12-20T18:09:30;5.50;99.90
21770;DHT22;11046;49.558;8.674;2023-12-20T18:12:31;5.60;99.90
21770;DHT22;11046;49.558;8.674;2023-12-20T18:15:31;5.60;99.90
21770;DHT22;11046;49.558;8.674;2023-12-20T18:18:32;5.60;99.90
21770;DHT22;11046;49.558;8.674;2023-12-20T18:21:32;5.50;99.90
21770;DHT22;11046;49.558;8.674;2023-12-20T18:24:33;5.50;99.90
21770;DHT22;11046;49.558;8.674;2023-12-20T18:27:34;5.50;99.90
21770;DHT22;11046;49.558;8.674;2023-12-20T18:30:35;5.50;99.90
21770;DHT22;11046;49.558;8.674;2023-12-20T18:33:35;5.60;99.90
21770;DHT22;11046;49.558;8.674;2023-12-20T18:36:36;5.60;99.90
21770;DHT22;11046;49.558;8.674;2023-12-20T18:39:37;5.60;99.90
21770;DHT22;11046;49.558;8.674;2023-12-20T18:42:40;5.60;99.90
21770;DHT22;11046;49.558;8.674;2023-12-20T18:45:43;5.70;99.90
21770;DHT22;11046;49.558;8.674;2023-12-20T18:48:43;5.70;99.90
21770;DHT22;11046;49.558;8.674;2023-12-20T18:51:45;5.60;99.90
21770;DHT22;11046;49.558;8.674;2023-12-20T18:54:46;5.70;99.90
21770;DHT22;11046;49.558;8.674;2023-12-20T18:57:46;5.70;99.90
21770;DHT22;11046;49.558;8.674;2023-12-20T19:00:47;5.70;99.90
21770;DHT22;11046;49.558;8.674;2023-12-20T19:03:48;5.70;99.90
21770;DHT22;11046;49.558;8.674;2023-12-20T19:06:49;5.70;99.90
21770;DHT22;11046;49.558;8.674;2023-12-20T19:09:50;5.70;99.90
21770;DHT22;11046;49.558;8.674;2023-12-20T19:12:51;5.70;99.90
21770;DHT22;11046;49.558;8.674;2023-12-20T19:15:52;5.70;99.90
21770;DHT22;11046;49.558;8.674;2023-12-20T19:18:52;5.70;99.90
21770;DHT22;11046;49.558;8.674;2023-12-20T19:21:53;5.80;99.90
21770;DHT22;11046;49.558;8.674;2023-12-20T19:24:54;5.70;99.90